createdAt,value
2024-03-16T00:01:24.219Z,9.28
2024-03-16T00:04:09.305Z,9.33
2024-03-16T00:06:54.271Z,9.35
2024-03-16T00:09:39.328Z,9.38
2024-03-16T00:12:24.299Z,9.43
2024-03-16T00:15:09.352Z,9.39
2024-03-16T00:17:54.354Z,9.41
2024-03-16T00:20:39.597Z,9.39
2024-03-16T00:23:24.605Z,9.35
2024-03-16T00:26:09.859Z,9.34
2024-03-16T00:28:55.161Z,9.49
2024-03-16T00:31:40.227Z,9.59
2024-03-16T00:34:25.313Z,9.55
2024-03-16T00:37:10.274Z,9.51
2024-03-16T00:39:55.485Z,9.45
2024-03-16T00:42:40.450Z,9.36
2024-03-16T00:45:25.700Z,9.11
2024-03-16T00:48:10.792Z,9.04
2024-03-16T00:50:55.934Z,8.96
2024-03-16T00:53:41.109Z,8.97
2024-03-16T00:56:26.173Z,8.95
2024-03-16T00:59:11.444Z,9.06
2024-03-16T01:01:56.669Z,9.11
2024-03-16T01:04:41.736Z,9.19
2024-03-16T01:07:26.803Z,9.31
2024-03-16T01:10:11.870Z,9.28
2024-03-16T01:12:57.231Z,9.26
2024-03-16T01:15:42.172Z,9.26
2024-03-16T01:18:27.416Z,9.20
2024-03-16T01:21:12.506Z,9.18
2024-03-16T01:23:57.753Z,9.20
2024-03-16T01:26:42.944Z,9.18
2024-03-16T01:29:28.063Z,9.16
2024-03-16T01:32:13.126Z,9.08
2024-03-16T01:34:58.103Z,9.00
2024-03-16T01:37:43.334Z,8.96
2024-03-16T01:40:28.456Z,8.95
2024-03-16T01:43:13.825Z,8.99
2024-03-16T01:45:58.994Z,8.99
2024-03-16T01:48:43.978Z,8.95
2024-03-16T01:51:29.212Z,8.92
2024-03-16T01:54:14.123Z,8.87
2024-03-16T01:56:59.272Z,8.83
2024-03-16T01:59:44.330Z,8.87
2024-03-16T02:02:29.526Z,8.84
2024-03-16T02:05:14.507Z,8.76
2024-03-16T02:07:59.546Z,8.73
2024-03-16T02:10:44.824Z,8.64
2024-03-16T02:13:29.809Z,8.67
2024-03-16T02:16:14.930Z,8.69
2024-03-16T02:19:00.036Z,8.69
2024-03-16T02:21:45.084Z,8.66
2024-03-16T02:24:30.101Z,8.66
2024-03-16T02:27:15.329Z,8.63
2024-03-16T02:30:00.409Z,8.55
2024-03-16T02:32:45.476Z,8.52
2024-03-16T02:35:30.559Z,8.51
2024-03-16T02:38:15.590Z,8.54
2024-03-16T02:41:00.778Z,8.58
2024-03-16T02:43:45.821Z,8.62
2024-03-16T02:46:30.953Z,8.67
2024-03-16T02:49:16.102Z,8.80
2024-03-16T02:52:01.300Z,8.84
2024-03-16T02:54:46.490Z,8.85
2024-03-16T02:57:31.436Z,8.75
2024-03-16T03:00:16.538Z,8.69
2024-03-16T03:03:01.472Z,8.54
2024-03-16T03:05:46.596Z,8.50
2024-03-16T03:08:31.811Z,8.50
2024-03-16T03:11:16.983Z,8.51
2024-03-16T03:14:02.160Z,8.53
2024-03-16T03:16:47.241Z,8.41
2024-03-16T03:19:32.478Z,8.37
2024-03-16T03:22:17.576Z,8.24
2024-03-16T03:25:02.937Z,8.17
2024-03-16T03:27:47.958Z,8.24
2024-03-16T03:30:33.145Z,8.25
2024-03-16T03:33:18.345Z,8.23
2024-03-16T03:36:03.336Z,8.19
2024-03-16T03:38:48.526Z,8.22
2024-03-16T03:41:33.549Z,8.08
2024-03-16T03:44:18.864Z,7.92
2024-03-16T03:47:03.962Z,7.71
2024-03-16T03:49:49.002Z,7.64
2024-03-16T03:52:34.172Z,7.60
2024-03-16T03:55:19.219Z,7.63
2024-03-16T03:58:04.653Z,7.70
2024-03-16T04:00:49.653Z,7.75
2024-03-16T04:03:34.796Z,7.85
2024-03-16T04:06:19.871Z,7.94
2024-03-16T04:09:04.967Z,8.07
2024-03-16T04:11:50.176Z,8.17
2024-03-16T04:14:35.248Z,8.17
2024-03-16T04:17:20.320Z,8.16
2024-03-16T04:20:05.449Z,8.16
2024-03-16T04:22:50.590Z,8.14
2024-03-16T04:25:35.781Z,8.19
2024-03-16T04:28:20.967Z,8.18
2024-03-16T04:31:06.329Z,8.14
2024-03-16T04:33:51.153Z,8.07
2024-03-16T04:36:36.430Z,8.01
2024-03-16T04:39:21.459Z,7.97
2024-03-16T04:42:06.739Z,7.95
2024-03-16T04:44:51.792Z,7.88
2024-03-16T04:47:37.050Z,7.78
2024-03-16T04:50:22.132Z,7.64
2024-03-16T04:53:07.170Z,7.56
2024-03-16T04:55:52.460Z,7.56
2024-03-16T04:58:37.594Z,7.54
2024-03-16T05:01:22.835Z,7.64
2024-03-16T05:04:07.745Z,7.76
2024-03-16T05:06:58.651Z,7.81
2024-03-16T05:09:43.667Z,7.89
2024-03-16T05:12:28.899Z,7.95
2024-03-16T05:15:13.957Z,8.05
2024-03-16T05:17:59.261Z,8.12
2024-03-16T05:20:44.210Z,8.16
2024-03-16T05:23:29.438Z,8.19
2024-03-16T05:26:14.436Z,8.16
2024-03-16T05:28:59.579Z,8.13
2024-03-16T05:31:44.722Z,8.15
2024-03-16T05:34:29.699Z,8.14
2024-03-16T05:37:15.100Z,8.19
2024-03-16T05:40:00.271Z,8.21
2024-03-16T05:42:45.301Z,8.25
2024-03-16T05:45:30.364Z,8.23
2024-03-16T05:48:15.539Z,8.19
2024-03-16T05:51:00.682Z,8.14
2024-03-16T05:53:45.804Z,8.11
2024-03-16T05:56:30.971Z,8.09
2024-03-16T05:59:15.929Z,8.14
2024-03-16T06:02:01.120Z,8.17
2024-03-16T06:04:46.177Z,8.19
2024-03-16T06:07:31.264Z,8.22
2024-03-16T06:10:16.547Z,8.22
2024-03-16T06:13:01.579Z,8.15
2024-03-16T06:15:46.753Z,8.06
2024-03-16T06:18:31.905Z,8.05
2024-03-16T06:21:17.004Z,8.01
2024-03-16T06:24:02.106Z,7.99
2024-03-16T06:26:47.384Z,8.05
2024-03-16T06:29:32.483Z,8.11
2024-03-16T06:32:17.543Z,8.13
2024-03-16T06:35:02.745Z,8.14
2024-03-16T06:37:47.844Z,8.17
2024-03-16T06:40:32.929Z,8.13
2024-03-16T06:43:18.054Z,8.21
2024-03-16T06:46:03.221Z,8.17
2024-03-16T06:48:48.365Z,8.09
2024-03-16T06:51:33.652Z,8.10
2024-03-16T06:54:18.681Z,8.07
2024-03-16T06:57:03.742Z,8.07
2024-03-16T06:59:48.958Z,8.04
2024-03-16T07:02:34.055Z,8.04
2024-03-16T07:05:19.250Z,8.08
2024-03-16T07:08:04.268Z,8.25
2024-03-16T07:10:49.422Z,8.53
2024-03-16T07:13:34.385Z,8.73
2024-03-16T07:16:19.547Z,9.35
2024-03-16T07:19:04.729Z,10.83
2024-03-16T07:21:49.710Z,12.39
2024-03-16T07:24:34.912Z,14.79
2024-03-16T07:27:19.736Z,17.04
2024-03-16T07:30:04.901Z,18.13
2024-03-16T07:32:50.004Z,19.37
2024-03-16T07:35:34.942Z,20.08
2024-03-16T07:38:20.040Z,19.86
2024-03-16T07:41:05.074Z,17.56
2024-03-16T07:43:50.294Z,15.33
2024-03-16T07:46:35.396Z,14.46
2024-03-16T07:49:20.790Z,13.38
2024-03-16T07:52:05.926Z,12.29
2024-03-16T07:54:50.991Z,11.58
2024-03-16T07:57:36.247Z,11.01
2024-03-16T08:00:21.154Z,10.56
2024-03-16T08:03:06.409Z,9.92
2024-03-16T08:05:51.571Z,9.72
2024-03-16T08:08:36.800Z,9.70
2024-03-16T08:11:21.817Z,10.54
2024-03-16T08:14:06.960Z,10.45
2024-03-16T08:16:52.061Z,10.80
2024-03-16T08:19:37.124Z,11.13
2024-03-16T08:22:22.299Z,11.15
2024-03-16T08:25:07.319Z,11.54
2024-03-16T08:27:52.352Z,11.54
2024-03-16T08:30:37.359Z,11.72
2024-03-16T08:33:22.533Z,12.02
2024-03-16T08:36:07.461Z,12.68
2024-03-16T08:38:52.528Z,13.45
2024-03-16T08:41:37.817Z,12.96
2024-03-16T08:44:22.695Z,12.14
2024-03-16T08:47:07.847Z,11.92
2024-03-16T08:49:52.800Z,11.98
2024-03-16T08:52:38.974Z,11.94
2024-03-16T08:55:24.444Z,11.79
2024-03-16T08:58:09.524Z,11.94
2024-03-16T09:00:55.022Z,11.88
2024-03-16T09:03:39.746Z,11.73
2024-03-16T09:06:24.876Z,11.34
2024-03-16T09:09:09.961Z,11.47
2024-03-16T09:11:55.292Z,11.41
2024-03-16T09:14:40.371Z,11.45
2024-03-16T09:17:25.463Z,11.39
2024-03-16T09:20:10.892Z,11.53
2024-03-16T09:22:55.784Z,11.55
2024-03-16T09:25:40.985Z,11.31
2024-03-16T09:28:26.107Z,11.52
2024-03-16T09:31:11.025Z,11.13
2024-03-16T09:33:56.178Z,11.22
2024-03-16T09:36:41.215Z,11.31
2024-03-16T09:39:26.318Z,11.20
2024-03-16T09:42:11.293Z,10.95
